sensor_id;sensor_type;location;lat;lon;timestamp;P1;durP1;ratioP1;P2;durP2;ratioP2
76475;SDS011;65308;50.078;14.854;2023-05-10T00:00:21;4.53;;;2.95;;
76475;SDS011;65308;50.078;14.854;2023-05-10T00:02:56;5.47;;;2.83;;
76475;SDS011;65308;50.078;14.854;2023-05-10T00:05:22;7.57;;;2.90;;
76475;SDS011;65308;50.078;14.854;2023-05-10T00:07:49;5.82;;;2.90;;
76475;SDS011;65308;50.078;14.854;2023-05-10T00:10:16;4.65;;;3.00;;
76475;SDS011;65308;50.078;14.854;2023-05-10T00:12:42;4.95;;;3.10;;
76475;SDS011;65308;50.078;14.854;2023-05-10T00:15:09;5.40;;;2.70;;
76475;SDS011;65308;50.078;14.854;2023-05-10T00:17:36;5.70;;;3.08;;
76475;SDS011;65308;50.078;14.854;2023-05-10T00:20:05;4.32;;;2.75;;
76475;SDS011;65308;50.078;14.854;2023-05-10T00:22:32;5.15;;;3.22;;
76475;SDS011;65308;50.078;14.854;2023-05-10T00:24:59;4.82;;;2.90;;
76475;SDS011;65308;50.078;14.854;2023-05-10T00:27:25;6.03;;;3.40;;
76475;SDS011;65308;50.078;14.854;2023-05-10T00:29:52;5.25;;;3.17;;
76475;SDS011;65308;50.078;14.854;2023-05-10T00:32:21;4.15;;;2.60;;
76475;SDS011;65308;50.078;14.854;2023-05-10T00:34:49;5.40;;;2.80;;
76475;SDS011;65308;50.078;14.854;2023-05-10T00:37:17;4.95;;;2.80;;
76475;SDS011;65308;50.078;14.854;2023-05-10T00:39:44;6.57;;;2.95;;
76475;SDS011;65308;50.078;14.854;2023-05-10T00:42:11;4.88;;;2.90;;
76475;SDS011;65308;50.078;14.854;2023-05-10T00:44:37;6.03;;;2.97;;
76475;SDS011;65308;50.078;14.854;2023-05-10T00:47:04;4.72;;;2.60;;
76475;SDS011;65308;50.078;14.854;2023-05-10T00:49:30;5.80;;;2.90;;
76475;SDS011;65308;50.078;14.854;2023-05-10T00:51:59;5.45;;;2.80;;
76475;SDS011;65308;50.078;14.854;2023-05-10T00:54:28;5.43;;;2.80;;
76475;SDS011;65308;50.078;14.854;2023-05-10T00:56:55;4.55;;;2.63;;
76475;SDS011;65308;50.078;14.854;2023-05-10T00:59:22;4.75;;;2.60;;
76475;SDS011;65308;50.078;14.854;2023-05-10T01:01:50;4.85;;;2.80;;
76475;SDS011;65308;50.078;14.854;2023-05-10T01:04:17;4.60;;;2.75;;
76475;SDS011;65308;50.078;14.854;2023-05-10T01:09:11;5.38;;;2.75;;
76475;SDS011;65308;50.078;14.854;2023-05-10T01:11:39;4.45;;;2.65;;
76475;SDS011;65308;50.078;14.854;2023-05-10T01:14:06;7.28;;;2.88;;
76475;SDS011;65308;50.078;14.854;2023-05-10T01:16:42;5.30;;;2.85;;
76475;SDS011;65308;50.078;14.854;2023-05-10T01:19:18;4.57;;;2.67;;
76475;SDS011;65308;50.078;14.854;2023-05-10T01:21:48;4.90;;;2.72;;
76475;SDS011;65308;50.078;14.854;2023-05-10T01:27:23;6.47;;;3.00;;
76475;SDS011;65308;50.078;14.854;2023-05-10T01:30:13;5.18;;;2.90;;
76475;SDS011;65308;50.078;14.854;2023-05-10T01:32:56;8.07;;;3.03;;
76475;SDS011;65308;50.078;14.854;2023-05-10T01:35:30;5.70;;;2.78;;
76475;SDS011;65308;50.078;14.854;2023-05-10T01:38:04;5.63;;;2.63;;
76475;SDS011;65308;50.078;14.854;2023-05-10T01:40:35;4.35;;;2.72;;
76475;SDS011;65308;50.078;14.854;2023-05-10T01:43:08;5.30;;;2.58;;
76475;SDS011;65308;50.078;14.854;2023-05-10T01:45:41;5.00;;;2.72;;
76475;SDS011;65308;50.078;14.854;2023-05-10T01:48:15;5.68;;;2.70;;
76475;SDS011;65308;50.078;14.854;2023-05-10T01:50:44;6.03;;;2.60;;
76475;SDS011;65308;50.078;14.854;2023-05-10T01:53:12;4.68;;;2.67;;
76475;SDS011;65308;50.078;14.854;2023-05-10T01:55:44;6.95;;;3.00;;
76475;SDS011;65308;50.078;14.854;2023-05-10T01:58:19;5.75;;;2.90;;
76475;SDS011;65308;50.078;14.854;2023-05-10T02:00:49;5.40;;;2.83;;
76475;SDS011;65308;50.078;14.854;2023-05-10T02:03:19;5.80;;;3.00;;
76475;SDS011;65308;50.078;14.854;2023-05-10T02:05:48;5.50;;;3.03;;
76475;SDS011;65308;50.078;14.854;2023-05-10T02:08:16;6.25;;;2.97;;
76475;SDS011;65308;50.078;14.854;2023-05-10T02:10:44;7.38;;;2.90;;
76475;SDS011;65308;50.078;14.854;2023-05-10T02:13:12;4.78;;;2.58;;
76475;SDS011;65308;50.078;14.854;2023-05-10T02:15:41;4.93;;;3.17;;
76475;SDS011;65308;50.078;14.854;2023-05-10T02:18:09;5.43;;;3.08;;
76475;SDS011;65308;50.078;14.854;2023-05-10T02:20:39;4.72;;;2.47;;
76475;SDS011;65308;50.078;14.854;2023-05-10T02:23:06;4.60;;;2.70;;
76475;SDS011;65308;50.078;14.854;2023-05-10T02:25:34;5.70;;;3.05;;
76475;SDS011;65308;50.078;14.854;2023-05-10T02:28:02;5.15;;;2.80;;
76475;SDS011;65308;50.078;14.854;2023-05-10T02:30:31;4.07;;;2.67;;
76475;SDS011;65308;50.078;14.854;2023-05-10T02:32:59;4.10;;;2.60;;
76475;SDS011;65308;50.078;14.854;2023-05-10T02:35:28;4.72;;;2.97;;
76475;SDS011;65308;50.078;14.854;2023-05-10T02:37:57;7.00;;;3.10;;
76475;SDS011;65308;50.078;14.854;2023-05-10T02:40:25;5.88;;;3.13;;
76475;SDS011;65308;50.078;14.854;2023-05-10T02:42:54;4.30;;;2.78;;
76475;SDS011;65308;50.078;14.854;2023-05-10T02:45:23;5.85;;;3.00;;
76475;SDS011;65308;50.078;14.854;2023-05-10T02:47:53;5.40;;;3.28;;
76475;SDS011;65308;50.078;14.854;2023-05-10T02:50:21;5.22;;;3.10;;
76475;SDS011;65308;50.078;14.854;2023-05-10T02:52:50;6.45;;;2.92;;
76475;SDS011;65308;50.078;14.854;2023-05-10T02:55:19;5.78;;;3.10;;
76475;SDS011;65308;50.078;14.854;2023-05-10T02:57:50;4.15;;;2.50;;
76475;SDS011;65308;50.078;14.854;2023-05-10T03:00:20;4.85;;;2.88;;
76475;SDS011;65308;50.078;14.854;2023-05-10T03:02:48;4.72;;;2.80;;
76475;SDS011;65308;50.078;14.854;2023-05-10T03:05:15;4.88;;;2.63;;
76475;SDS011;65308;50.078;14.854;2023-05-10T03:07:41;6.32;;;3.00;;
76475;SDS011;65308;50.078;14.854;2023-05-10T03:10:09;4.55;;;2.72;;
76475;SDS011;65308;50.078;14.854;2023-05-10T03:12:46;5.03;;;3.08;;
76475;SDS011;65308;50.078;14.854;2023-05-10T03:15:25;6.80;;;2.92;;
76475;SDS011;65308;50.078;14.854;2023-05-10T03:18:04;5.25;;;2.92;;
76475;SDS011;65308;50.078;14.854;2023-05-10T03:20:35;5.97;;;2.72;;
76475;SDS011;65308;50.078;14.854;2023-05-10T03:23:07;4.40;;;2.65;;
76475;SDS011;65308;50.078;14.854;2023-05-10T03:25:39;5.07;;;2.85;;
76475;SDS011;65308;50.078;14.854;2023-05-10T03:28:10;4.88;;;3.03;;
76475;SDS011;65308;50.078;14.854;2023-05-10T03:30:40;6.25;;;3.25;;
76475;SDS011;65308;50.078;14.854;2023-05-10T03:33:08;6.45;;;3.50;;
76475;SDS011;65308;50.078;14.854;2023-05-10T03:35:37;5.43;;;2.95;;
76475;SDS011;65308;50.078;14.854;2023-05-10T03:38:16;5.68;;;3.58;;
76475;SDS011;65308;50.078;14.854;2023-05-10T03:40:44;6.43;;;3.10;;
76475;SDS011;65308;50.078;14.854;2023-05-10T03:43:12;5.28;;;3.00;;
76475;SDS011;65308;50.078;14.854;2023-05-10T03:45:39;4.85;;;2.90;;
76475;SDS011;65308;50.078;14.854;2023-05-10T03:48:06;5.82;;;3.25;;
76475;SDS011;65308;50.078;14.854;2023-05-10T03:50:33;6.22;;;2.80;;
76475;SDS011;65308;50.078;14.854;2023-05-10T03:53:00;6.43;;;3.00;;
76475;SDS011;65308;50.078;14.854;2023-05-10T03:55:27;5.85;;;3.00;;
76475;SDS011;65308;50.078;14.854;2023-05-10T03:57:54;4.38;;;2.88;;
76475;SDS011;65308;50.078;14.854;2023-05-10T04:00:22;4.45;;;2.92;;
76475;SDS011;65308;50.078;14.854;2023-05-10T04:02:51;5.35;;;2.85;;
76475;SDS011;65308;50.078;14.854;2023-05-10T04:05:18;5.70;;;2.78;;
76475;SDS011;65308;50.078;14.854;2023-05-10T04:07:45;4.70;;;3.05;;
76475;SDS011;65308;50.078;14.854;2023-05-10T04:10:12;4.68;;;3.15;;
76475;SDS011;65308;50.078;14.854;2023-05-10T04:12:39;6.45;;;3.13;;
76475;SDS011;65308;50.078;14.854;2023-05-10T04:15:08;4.30;;;2.88;;
76475;SDS011;65308;50.078;14.854;2023-05-10T04:17:37;5.25;;;2.80;;
76475;SDS011;65308;50.078;14.854;2023-05-10T04:20:04;7.53;;;3.20;;
76475;SDS011;65308;50.078;14.854;2023-05-10T04:22:31;4.07;;;2.78;;
76475;SDS011;65308;50.078;14.854;2023-05-10T04:24:58;5.00;;;3.13;;
76475;SDS011;65308;50.078;14.854;2023-05-10T04:27:25;5.90;;;3.60;;
76475;SDS011;65308;50.078;14.854;2023-05-10T04:29:52;9.20;;;5.70;;
76475;SDS011;65308;50.078;14.854;2023-05-10T04:32:19;10.00;;;5.47;;
76475;SDS011;65308;50.078;14.854;2023-05-10T04:34:47;8.35;;;4.72;;
76475;SDS011;65308;50.078;14.854;2023-05-10T04:37:13;6.20;;;4.20;;
76475;SDS011;65308;50.078;14.854;2023-05-10T04:39:40;6.85;;;4.22;;
76475;SDS011;65308;50.078;14.854;2023-05-10T04:42:07;5.78;;;3.60;;
76475;SDS011;65308;50.078;14.854;2023-05-10T04:44:34;5.85;;;3.33;;
76475;SDS011;65308;50.078;14.854;2023-05-10T04:47:01;5.53;;;3.63;;
76475;SDS011;65308;50.078;14.854;2023-05-10T04:49:28;6.97;;;4.28;;
76475;SDS011;65308;50.078;14.854;2023-05-10T04:51:56;12.43;;;7.75;;
76475;SDS011;65308;50.078;14.854;2023-05-10T04:54:23;10.68;;;7.38;;
76475;SDS011;65308;50.078;14.854;2023-05-10T04:56:49;19.35;;;12.05;;
76475;SDS011;65308;50.078;14.854;2023-05-10T04:59:16;8.77;;;6.35;;
76475;SDS011;65308;50.078;14.854;2023-05-10T05:01:43;5.40;;;4.28;;
76475;SDS011;65308;50.078;14.854;2023-05-10T05:04:10;5.00;;;3.90;;
76475;SDS011;65308;50.078;14.854;2023-05-10T05:06:37;6.40;;;3.72;;
76475;SDS011;65308;50.078;14.854;2023-05-10T05:09:05;5.35;;;3.50;;
76475;SDS011;65308;50.078;14.854;2023-05-10T05:11:31;4.70;;;3.55;;
76475;SDS011;65308;50.078;14.854;2023-05-10T05:13:58;5.82;;;3.72;;
76475;SDS011;65308;50.078;14.854;2023-05-10T05:16:25;5.22;;;3.83;;
76475;SDS011;65308;50.078;14.854;2023-05-10T05:18:52;5.82;;;4.00;;
76475;SDS011;65308;50.078;14.854;2023-05-10T05:21:19;6.80;;;4.25;;
76475;SDS011;65308;50.078;14.854;2023-05-10T05:23:47;6.07;;;3.75;;
76475;SDS011;65308;50.078;14.854;2023-05-10T05:26:15;6.55;;;4.30;;
76475;SDS011;65308;50.078;14.854;2023-05-10T05:28:42;5.82;;;3.92;;
76475;SDS011;65308;50.078;14.854;2023-05-10T05:31:09;5.70;;;3.70;;
76475;SDS011;65308;50.078;14.854;2023-05-10T05:33:36;5.95;;;3.80;;
76475;SDS011;65308;50.078;14.854;2023-05-10T05:36:04;8.13;;;3.70;;
76475;SDS011;65308;50.078;14.854;2023-05-10T05:38:32;6.35;;;4.10;;
76475;SDS011;65308;50.078;14.854;2023-05-10T05:40:59;4.80;;;3.60;;
76475;SDS011;65308;50.078;14.854;2023-05-10T05:43:27;5.70;;;3.95;;
76475;SDS011;65308;50.078;14.854;2023-05-10T05:45:54;7.22;;;4.22;;
76475;SDS011;65308;50.078;14.854;2023-05-10T05:48:22;8.35;;;4.15;;
76475;SDS011;65308;50.078;14.854;2023-05-10T05:50:49;5.70;;;3.90;;
76475;SDS011;65308;50.078;14.854;2023-05-10T05:53:18;5.60;;;4.13;;
76475;SDS011;65308;50.078;14.854;2023-05-10T05:55:52;5.13;;;4.15;;
76475;SDS011;65308;50.078;14.854;2023-05-10T05:58:20;5.28;;;3.80;;
76475;SDS011;65308;50.078;14.854;2023-05-10T06:00:48;6.35;;;3.95;;
76475;SDS011;65308;50.078;14.854;2023-05-10T06:03:15;7.82;;;4.30;;
76475;SDS011;65308;50.078;14.854;2023-05-10T06:05:42;5.97;;;3.92;;
76475;SDS011;65308;50.078;14.854;2023-05-10T06:08:09;6.28;;;4.10;;
76475;SDS011;65308;50.078;14.854;2023-05-10T06:10:36;5.53;;;4.18;;
76475;SDS011;65308;50.078;14.854;2023-05-10T06:13:03;5.97;;;4.13;;
76475;SDS011;65308;50.078;14.854;2023-05-10T06:15:32;4.72;;;3.97;;
76475;SDS011;65308;50.078;14.854;2023-05-10T06:18:01;6.60;;;3.92;;
76475;SDS011;65308;50.078;14.854;2023-05-10T06:20:28;5.38;;;3.90;;
76475;SDS011;65308;50.078;14.854;2023-05-10T06:22:56;5.85;;;3.80;;
76475;SDS011;65308;50.078;14.854;2023-05-10T06:25:23;4.70;;;3.83;;
76475;SDS011;65308;50.078;14.854;2023-05-10T06:27:50;4.57;;;3.72;;
76475;SDS011;65308;50.078;14.854;2023-05-10T06:30:22;4.75;;;3.65;;
76475;SDS011;65308;50.078;14.854;2023-05-10T06:32:53;4.75;;;3.72;;
76475;SDS011;65308;50.078;14.854;2023-05-10T06:35:22;5.18;;;3.72;;
76475;SDS011;65308;50.078;14.854;2023-05-10T06:37:49;4.05;;;3.33;;
76475;SDS011;65308;50.078;14.854;2023-05-10T06:40:16;4.28;;;3.65;;
76475;SDS011;65308;50.078;14.854;2023-05-10T06:42:44;4.25;;;3.58;;
76475;SDS011;65308;50.078;14.854;2023-05-10T06:45:12;4.80;;;3.72;;
76475;SDS011;65308;50.078;14.854;2023-05-10T06:47:39;3.55;;;3.05;;
76475;SDS011;65308;50.078;14.854;2023-05-10T06:50:07;4.85;;;3.58;;
76475;SDS011;65308;50.078;14.854;2023-05-10T06:52:36;5.10;;;4.13;;
76475;SDS011;65308;50.078;14.854;2023-05-10T06:55:03;4.80;;;3.40;;
76475;SDS011;65308;50.078;14.854;2023-05-10T06:57:33;5.80;;;3.75;;
76475;SDS011;65308;50.078;14.854;2023-05-10T07:00:01;4.93;;;3.67;;
76475;SDS011;65308;50.078;14.854;2023-05-10T07:02:30;5.80;;;3.80;;
76475;SDS011;65308;50.078;14.854;2023-05-10T07:04:56;4.90;;;3.83;;
76475;SDS011;65308;50.078;14.854;2023-05-10T07:07:23;5.28;;;3.63;;
76475;SDS011;65308;50.078;14.854;2023-05-10T07:09:51;5.43;;;3.88;;
76475;SDS011;65308;50.078;14.854;2023-05-10T07:12:18;4.82;;;3.58;;
76475;SDS011;65308;50.078;14.854;2023-05-10T07:14:45;4.65;;;4.00;;
76475;SDS011;65308;50.078;14.854;2023-05-10T07:17:11;4.60;;;3.55;;
76475;SDS011;65308;50.078;14.854;2023-05-10T07:19:39;6.72;;;3.92;;
76475;SDS011;65308;50.078;14.854;2023-05-10T07:22:06;4.80;;;3.40;;
76475;SDS011;65308;50.078;14.854;2023-05-10T07:24:33;4.90;;;3.83;;
76475;SDS011;65308;50.078;14.854;2023-05-10T07:27:01;4.60;;;3.45;;
76475;SDS011;65308;50.078;14.854;2023-05-10T07:29:29;5.18;;;3.85;;
76475;SDS011;65308;50.078;14.854;2023-05-10T07:31:55;7.05;;;3.63;;
76475;SDS011;65308;50.078;14.854;2023-05-10T07:34:22;5.10;;;3.53;;
76475;SDS011;65308;50.078;14.854;2023-05-10T07:36:50;4.30;;;3.75;;
76475;SDS011;65308;50.078;14.854;2023-05-10T07:39:23;3.90;;;3.30;;
76475;SDS011;65308;50.078;14.854;2023-05-10T07:41:50;5.93;;;3.70;;
76475;SDS011;65308;50.078;14.854;2023-05-10T07:44:18;4.18;;;3.25;;
76475;SDS011;65308;50.078;14.854;2023-05-10T07:46:45;4.68;;;3.50;;
76475;SDS011;65308;50.078;14.854;2023-05-10T07:49:13;4.40;;;3.60;;
76475;SDS011;65308;50.078;14.854;2023-05-10T07:51:41;4.35;;;3.38;;
76475;SDS011;65308;50.078;14.854;2023-05-10T07:54:08;5.90;;;3.53;;
76475;SDS011;65308;50.078;14.854;2023-05-10T07:56:35;5.25;;;4.13;;
76475;SDS011;65308;50.078;14.854;2023-05-10T07:59:02;4.15;;;3.53;;
76475;SDS011;65308;50.078;14.854;2023-05-10T08:01:33;5.55;;;3.63;;
76475;SDS011;65308;50.078;14.854;2023-05-10T08:04:00;6.22;;;3.65;;
76475;SDS011;65308;50.078;14.854;2023-05-10T08:06:28;4.72;;;3.50;;
76475;SDS011;65308;50.078;14.854;2023-05-10T08:08:55;4.28;;;3.58;;
76475;SDS011;65308;50.078;14.854;2023-05-10T08:13:49;5.90;;;3.70;;
76475;SDS011;65308;50.078;14.854;2023-05-10T08:16:19;5.05;;;3.78;;
76475;SDS011;65308;50.078;14.854;2023-05-10T08:18:47;4.85;;;3.90;;
76475;SDS011;65308;50.078;14.854;2023-05-10T08:21:15;5.20;;;3.92;;
76475;SDS011;65308;50.078;14.854;2023-05-10T08:23:42;4.30;;;3.63;;
76475;SDS011;65308;50.078;14.854;2023-05-10T08:26:11;7.25;;;3.95;;
76475;SDS011;65308;50.078;14.854;2023-05-10T08:28:38;6.57;;;3.70;;
76475;SDS011;65308;50.078;14.854;2023-05-10T08:31:05;4.90;;;3.35;;
76475;SDS011;65308;50.078;14.854;2023-05-10T08:33:32;4.00;;;3.40;;
76475;SDS011;65308;50.078;14.854;2023-05-10T08:36:00;4.50;;;3.15;;
76475;SDS011;65308;50.078;14.854;2023-05-10T08:38:28;4.40;;;3.90;;
76475;SDS011;65308;50.078;14.854;2023-05-10T08:40:57;5.88;;;3.78;;
76475;SDS011;65308;50.078;14.854;2023-05-10T08:43:26;4.82;;;3.30;;
76475;SDS011;65308;50.078;14.854;2023-05-10T08:45:55;4.35;;;3.30;;
76475;SDS011;65308;50.078;14.854;2023-05-10T08:48:23;4.30;;;3.50;;
76475;SDS011;65308;50.078;14.854;2023-05-10T08:50:53;4.75;;;3.45;;
76475;SDS011;65308;50.078;14.854;2023-05-10T08:53:22;4.38;;;3.42;;
76475;SDS011;65308;50.078;14.854;2023-05-10T08:55:51;4.97;;;3.88;;
76475;SDS011;65308;50.078;14.854;2023-05-10T08:58:19;5.72;;;3.90;;
76475;SDS011;65308;50.078;14.854;2023-05-10T09:00:46;4.65;;;3.80;;
76475;SDS011;65308;50.078;14.854;2023-05-10T09:03:15;4.53;;;3.75;;
76475;SDS011;65308;50.078;14.854;2023-05-10T09:05:42;5.32;;;3.90;;
76475;SDS011;65308;50.078;14.854;2023-05-10T09:08:09;4.78;;;3.90;;
76475;SDS011;65308;50.078;14.854;2023-05-10T09:10:39;5.28;;;3.63;;
76475;SDS011;65308;50.078;14.854;2023-05-10T09:13:08;5.25;;;3.95;;
76475;SDS011;65308;50.078;14.854;2023-05-10T09:15:36;5.05;;;3.60;;
76475;SDS011;65308;50.078;14.854;2023-05-10T09:20:30;6.28;;;3.72;;
76475;SDS011;65308;50.078;14.854;2023-05-10T09:22:58;5.10;;;3.72;;
76475;SDS011;65308;50.078;14.854;2023-05-10T09:25:26;4.45;;;3.50;;
76475;SDS011;65308;50.078;14.854;2023-05-10T09:27:54;4.65;;;3.42;;
76475;SDS011;65308;50.078;14.854;2023-05-10T09:30:25;5.43;;;3.55;;
76475;SDS011;65308;50.078;14.854;2023-05-10T09:32:53;5.82;;;3.38;;
76475;SDS011;65308;50.078;14.854;2023-05-10T09:35:21;4.75;;;3.55;;
76475;SDS011;65308;50.078;14.854;2023-05-10T09:37:50;5.25;;;3.40;;
76475;SDS011;65308;50.078;14.854;2023-05-10T09:40:19;5.40;;;3.58;;
76475;SDS011;65308;50.078;14.854;2023-05-10T09:42:53;4.20;;;3.30;;
76475;SDS011;65308;50.078;14.854;2023-05-10T09:45:23;4.00;;;3.22;;
76475;SDS011;65308;50.078;14.854;2023-05-10T09:47:51;5.28;;;3.53;;
76475;SDS011;65308;50.078;14.854;2023-05-10T09:50:18;5.30;;;3.38;;
76475;SDS011;65308;50.078;14.854;2023-05-10T09:52:46;4.75;;;3.15;;
76475;SDS011;65308;50.078;14.854;2023-05-10T09:55:14;4.75;;;3.38;;
76475;SDS011;65308;50.078;14.854;2023-05-10T09:57:41;5.97;;;3.78;;
76475;SDS011;65308;50.078;14.854;2023-05-10T10:00:10;4.63;;;3.35;;
76475;SDS011;65308;50.078;14.854;2023-05-10T10:02:45;4.70;;;3.13;;
76475;SDS011;65308;50.078;14.854;2023-05-10T10:05:12;5.47;;;3.35;;
76475;SDS011;65308;50.078;14.854;2023-05-10T10:07:40;4.10;;;2.85;;
76475;SDS011;65308;50.078;14.854;2023-05-10T10:10:07;4.32;;;3.50;;
76475;SDS011;65308;50.078;14.854;2023-05-10T10:12:37;4.60;;;3.42;;
76475;SDS011;65308;50.078;14.854;2023-05-10T10:15:07;5.47;;;3.30;;
76475;SDS011;65308;50.078;14.854;2023-05-10T10:17:36;5.00;;;3.08;;
76475;SDS011;65308;50.078;14.854;2023-05-10T10:20:05;5.50;;;3.17;;
76475;SDS011;65308;50.078;14.854;2023-05-10T10:22:32;4.68;;;3.22;;
76475;SDS011;65308;50.078;14.854;2023-05-10T10:24:59;5.20;;;3.17;;
76475;SDS011;65308;50.078;14.854;2023-05-10T10:27:28;4.72;;;3.05;;
76475;SDS011;65308;50.078;14.854;2023-05-10T10:30:03;7.93;;;3.35;;
76475;SDS011;65308;50.078;14.854;2023-05-10T10:32:46;4.85;;;3.10;;
76475;SDS011;65308;50.078;14.854;2023-05-10T10:35:32;19.83;;;4.20;;
76475;SDS011;65308;50.078;14.854;2023-05-10T10:38:00;5.00;;;3.13;;
76475;SDS011;65308;50.078;14.854;2023-05-10T10:40:27;3.97;;;2.97;;
76475;SDS011;65308;50.078;14.854;2023-05-10T10:42:55;4.82;;;2.67;;
76475;SDS011;65308;50.078;14.854;2023-05-10T10:45:23;6.60;;;3.17;;
76475;SDS011;65308;50.078;14.854;2023-05-10T10:50:56;4.28;;;3.25;;
76475;SDS011;65308;50.078;14.854;2023-05-10T10:53:25;4.28;;;2.95;;
76475;SDS011;65308;50.078;14.854;2023-05-10T10:55:53;5.80;;;3.30;;
76475;SDS011;65308;50.078;14.854;2023-05-10T10:58:32;4.78;;;3.05;;
76475;SDS011;65308;50.078;14.854;2023-05-10T11:01:10;5.28;;;3.08;;
76475;SDS011;65308;50.078;14.854;2023-05-10T11:03:40;5.15;;;3.05;;
76475;SDS011;65308;50.078;14.854;2023-05-10T11:06:07;4.30;;;3.15;;
76475;SDS011;65308;50.078;14.854;2023-05-10T11:08:34;5.05;;;2.90;;
76475;SDS011;65308;50.078;14.854;2023-05-10T11:11:08;5.80;;;3.38;;
76475;SDS011;65308;50.078;14.854;2023-05-10T11:13:38;4.10;;;3.25;;
76475;SDS011;65308;50.078;14.854;2023-05-10T11:16:13;4.82;;;3.20;;
76475;SDS011;65308;50.078;14.854;2023-05-10T11:18:52;4.40;;;3.13;;
76475;SDS011;65308;50.078;14.854;2023-05-10T11:21:20;5.22;;;3.03;;
76475;SDS011;65308;50.078;14.854;2023-05-10T11:23:47;7.60;;;3.28;;
76475;SDS011;65308;50.078;14.854;2023-05-10T11:26:21;8.60;;;3.50;;
76475;SDS011;65308;50.078;14.854;2023-05-10T11:28:51;5.82;;;3.40;;
76475;SDS011;65308;50.078;14.854;2023-05-10T11:31:19;5.28;;;3.30;;
76475;SDS011;65308;50.078;14.854;2023-05-10T11:33:47;4.93;;;3.05;;
76475;SDS011;65308;50.078;14.854;2023-05-10T11:36:18;5.13;;;3.28;;
76475;SDS011;65308;50.078;14.854;2023-05-10T11:38:49;5.88;;;2.85;;
76475;SDS011;65308;50.078;14.854;2023-05-10T11:41:16;6.03;;;3.45;;
76475;SDS011;65308;50.078;14.854;2023-05-10T11:43:45;5.35;;;3.22;;
76475;SDS011;65308;50.078;14.854;2023-05-10T11:46:14;4.43;;;3.10;;
76475;SDS011;65308;50.078;14.854;2023-05-10T11:48:42;4.45;;;2.88;;
76475;SDS011;65308;50.078;14.854;2023-05-10T11:51:09;5.47;;;3.40;;
76475;SDS011;65308;50.078;14.854;2023-05-10T11:53:38;5.25;;;3.30;;
76475;SDS011;65308;50.078;14.854;2023-05-10T11:56:05;5.20;;;3.40;;
76475;SDS011;65308;50.078;14.854;2023-05-10T11:58:32;4.93;;;3.40;;
76475;SDS011;65308;50.078;14.854;2023-05-10T12:01:00;8.90;;;3.85;;
76475;SDS011;65308;50.078;14.854;2023-05-10T12:03:28;5.75;;;3.53;;
76475;SDS011;65308;50.078;14.854;2023-05-10T12:05:55;5.68;;;3.72;;
76475;SDS011;65308;50.078;14.854;2023-05-10T12:08:23;5.13;;;3.42;;
76475;SDS011;65308;50.078;14.854;2023-05-10T12:13:31;5.72;;;3.88;;
76475;SDS011;65308;50.078;14.854;2023-05-10T12:15:58;5.47;;;3.33;;
76475;SDS011;65308;50.078;14.854;2023-05-10T12:20:56;5.63;;;3.67;;
76475;SDS011;65308;50.078;14.854;2023-05-10T12:23:29;5.90;;;3.20;;
76475;SDS011;65308;50.078;14.854;2023-05-10T12:26:01;5.80;;;3.50;;
76475;SDS011;65308;50.078;14.854;2023-05-10T12:28:31;4.38;;;3.30;;
76475;SDS011;65308;50.078;14.854;2023-05-10T12:30:58;4.18;;;3.30;;
76475;SDS011;65308;50.078;14.854;2023-05-10T12:36:16;6.43;;;3.15;;
76475;SDS011;65308;50.078;14.854;2023-05-10T12:38:50;5.55;;;3.00;;
76475;SDS011;65308;50.078;14.854;2023-05-10T12:41:17;5.10;;;3.10;;
76475;SDS011;65308;50.078;14.854;2023-05-10T12:51:37;5.30;;;3.20;;
76475;SDS011;65308;50.078;14.854;2023-05-10T12:54:04;6.65;;;3.35;;
76475;SDS011;65308;50.078;14.854;2023-05-10T12:56:30;5.30;;;2.88;;
76475;SDS011;65308;50.078;14.854;2023-05-10T12:58:57;4.55;;;2.70;;
76475;SDS011;65308;50.078;14.854;2023-05-10T13:01:25;40.50;;;5.97;;
76475;SDS011;65308;50.078;14.854;2023-05-10T13:03:52;6.07;;;3.30;;
76475;SDS011;65308;50.078;14.854;2023-05-10T13:06:18;4.70;;;3.15;;
76475;SDS011;65308;50.078;14.854;2023-05-10T13:08:45;4.40;;;2.78;;
76475;SDS011;65308;50.078;14.854;2023-05-10T13:11:12;6.22;;;3.13;;
76475;SDS011;65308;50.078;14.854;2023-05-10T13:13:41;4.63;;;3.20;;
76475;SDS011;65308;50.078;14.854;2023-05-10T13:16:08;7.20;;;3.13;;
76475;SDS011;65308;50.078;14.854;2023-05-10T13:18:37;7.78;;;3.00;;
76475;SDS011;65308;50.078;14.854;2023-05-10T13:21:04;4.60;;;2.90;;
76475;SDS011;65308;50.078;14.854;2023-05-10T13:23:32;5.28;;;3.35;;
76475;SDS011;65308;50.078;14.854;2023-05-10T13:26:00;5.00;;;2.92;;
76475;SDS011;65308;50.078;14.854;2023-05-10T13:28:26;7.53;;;2.75;;
76475;SDS011;65308;50.078;14.854;2023-05-10T13:33:20;4.20;;;2.95;;
76475;SDS011;65308;50.078;14.854;2023-05-10T13:35:48;4.20;;;2.88;;
76475;SDS011;65308;50.078;14.854;2023-05-10T13:38:15;5.60;;;3.10;;
76475;SDS011;65308;50.078;14.854;2023-05-10T13:40:42;3.97;;;2.80;;
76475;SDS011;65308;50.078;14.854;2023-05-10T13:43:08;4.75;;;3.15;;
76475;SDS011;65308;50.078;14.854;2023-05-10T13:45:39;4.82;;;2.80;;
76475;SDS011;65308;50.078;14.854;2023-05-10T13:48:25;5.03;;;2.80;;
76475;SDS011;65308;50.078;14.854;2023-05-10T13:50:54;4.75;;;3.00;;
76475;SDS011;65308;50.078;14.854;2023-05-10T13:53:22;6.28;;;4.05;;
76475;SDS011;65308;50.078;14.854;2023-05-10T13:55:54;4.75;;;3.05;;
76475;SDS011;65308;50.078;14.854;2023-05-10T13:58:20;4.55;;;2.80;;
76475;SDS011;65308;50.078;14.854;2023-05-10T14:00:47;5.38;;;2.90;;
76475;SDS011;65308;50.078;14.854;2023-05-10T14:03:14;5.45;;;2.97;;
76475;SDS011;65308;50.078;14.854;2023-05-10T14:05:40;3.97;;;2.67;;
76475;SDS011;65308;50.078;14.854;2023-05-10T14:08:08;4.55;;;2.75;;
76475;SDS011;65308;50.078;14.854;2023-05-10T14:10:35;5.38;;;2.72;;
76475;SDS011;65308;50.078;14.854;2023-05-10T14:13:03;5.05;;;2.58;;
76475;SDS011;65308;50.078;14.854;2023-05-10T14:15:29;8.05;;;2.90;;
76475;SDS011;65308;50.078;14.854;2023-05-10T14:17:56;3.45;;;2.65;;
76475;SDS011;65308;50.078;14.854;2023-05-10T14:20:22;4.30;;;2.78;;
76475;SDS011;65308;50.078;14.854;2023-05-10T14:22:49;5.57;;;2.80;;
76475;SDS011;65308;50.078;14.854;2023-05-10T14:25:17;4.93;;;2.72;;
76475;SDS011;65308;50.078;14.854;2023-05-10T14:35:36;4.72;;;2.60;;
76475;SDS011;65308;50.078;14.854;2023-05-10T14:38:04;5.35;;;2.80;;
76475;SDS011;65308;50.078;14.854;2023-05-10T14:40:32;5.13;;;2.63;;
76475;SDS011;65308;50.078;14.854;2023-05-10T14:42:59;5.00;;;2.88;;
76475;SDS011;65308;50.078;14.854;2023-05-10T14:45:26;5.05;;;2.70;;
76475;SDS011;65308;50.078;14.854;2023-05-10T14:47:53;6.32;;;2.80;;
76475;SDS011;65308;50.078;14.854;2023-05-10T14:50:20;4.05;;;2.72;;
76475;SDS011;65308;50.078;14.854;2023-05-10T14:52:47;4.78;;;2.65;;
76475;SDS011;65308;50.078;14.854;2023-05-10T14:55:16;5.28;;;2.75;;
76475;SDS011;65308;50.078;14.854;2023-05-10T14:57:50;3.85;;;2.65;;
76475;SDS011;65308;50.078;14.854;2023-05-10T15:00:17;4.53;;;2.80;;
76475;SDS011;65308;50.078;14.854;2023-05-10T15:02:44;4.18;;;2.60;;
76475;SDS011;65308;50.078;14.854;2023-05-10T15:07:39;4.88;;;2.58;;
76475;SDS011;65308;50.078;14.854;2023-05-10T15:10:06;5.65;;;2.90;;
76475;SDS011;65308;50.078;14.854;2023-05-10T15:12:34;3.88;;;2.80;;
76475;SDS011;65308;50.078;14.854;2023-05-10T15:15:02;4.30;;;2.60;;
76475;SDS011;65308;50.078;14.854;2023-05-10T15:17:29;7.88;;;2.72;;
76475;SDS011;65308;50.078;14.854;2023-05-10T15:19:57;4.25;;;3.10;;
76475;SDS011;65308;50.078;14.854;2023-05-10T15:22:30;3.88;;;2.60;;